createdAt,value
2022-12-15T00:02:19.204Z,3.30
2022-12-15T00:05:05.052Z,3.30
2022-12-15T00:07:50.666Z,3.30
2022-12-15T00:10:36.223Z,3.40
2022-12-15T00:13:21.636Z,3.40
2022-12-15T00:16:07.000Z,3.30
2022-12-15T00:18:52.401Z,3.30
2022-12-15T00:21:37.694Z,3.30
2022-12-15T00:24:23.226Z,3.40
2022-12-15T00:27:08.550Z,3.40
2022-12-15T00:29:54.042Z,3.40
2022-12-15T00:32:40.532Z,3.40
2022-12-15T00:35:29.315Z,3.40
2022-12-15T00:38:14.963Z,3.40
2022-12-15T00:40:41.575Z,3.40
2022-12-15T00:43:11.853Z,3.40
2022-12-15T00:45:57.141Z,3.30
2022-12-15T00:48:23.735Z,3.30
2022-12-15T00:50:53.124Z,3.40
2022-12-15T00:53:42.715Z,3.40
2022-12-15T00:56:28.591Z,3.40
2022-12-15T00:59:14.751Z,3.40
2022-12-15T01:02:01.356Z,3.40
2022-12-15T01:04:47.323Z,3.30
2022-12-15T01:07:32.882Z,3.30
2022-12-15T01:10:18.212Z,3.30
2022-12-15T01:13:04.437Z,3.30
2022-12-15T01:15:50.002Z,3.50
2022-12-15T01:18:36.115Z,3.40
2022-12-15T01:21:05.229Z,3.50
2022-12-15T01:23:33.164Z,3.50
2022-12-15T01:26:00.896Z,3.50
2022-12-15T01:28:27.608Z,3.50
2022-12-15T01:30:54.550Z,3.40
2022-12-15T01:33:22.280Z,3.40
2022-12-15T01:35:59.375Z,3.40
2022-12-15T01:38:27.530Z,3.50
2022-12-15T01:40:58.606Z,3.40
2022-12-15T01:43:29.718Z,3.30
2022-12-15T01:46:12.469Z,3.30
2022-12-15T01:48:44.636Z,3.20
2022-12-15T01:51:17.210Z,3.20
2022-12-15T01:54:00.163Z,3.20
2022-12-15T01:56:32.503Z,3.20
2022-12-15T01:59:07.332Z,3.10
2022-12-15T02:01:34.098Z,3.10
2022-12-15T02:04:02.167Z,3.10
2022-12-15T02:06:29.784Z,3.20
2022-12-15T02:08:58.879Z,3.20
2022-12-15T02:11:46.580Z,3.20
2022-12-15T02:14:35.298Z,3.20
2022-12-15T02:17:09.733Z,3.30
2022-12-15T02:19:54.606Z,3.30
2022-12-15T02:22:45.853Z,3.30
2022-12-15T02:25:44.804Z,3.30
2022-12-15T02:28:17.428Z,3.10
2022-12-15T02:31:12.948Z,3.10
2022-12-15T02:34:12.255Z,3.10
2022-12-15T02:36:42.769Z,3.10
2022-12-15T02:40:14.270Z,3.00
2022-12-15T02:42:46.704Z,3.10
2022-12-15T02:45:26.605Z,3.20
2022-12-15T02:47:56.232Z,3.20
2022-12-15T02:50:41.584Z,3.20
2022-12-15T02:53:17.309Z,3.10
2022-12-15T02:56:05.574Z,3.20
2022-12-15T02:58:57.223Z,3.20
2022-12-15T03:01:42.087Z,3.10
2022-12-15T03:04:10.647Z,3.10
2022-12-15T03:06:37.549Z,3.10
2022-12-15T03:09:04.557Z,3.10
2022-12-15T03:11:34.075Z,3.10
2022-12-15T03:14:03.342Z,3.10
2022-12-15T03:16:29.970Z,3.20
2022-12-15T03:18:58.606Z,3.20
2022-12-15T03:21:28.636Z,3.20
2022-12-15T03:23:56.244Z,3.20
2022-12-15T03:26:22.859Z,3.20
2022-12-15T03:28:49.511Z,3.20
2022-12-15T03:31:16.156Z,3.30
2022-12-15T03:33:42.799Z,3.20
2022-12-15T03:36:09.687Z,3.10
2022-12-15T03:38:36.335Z,3.20
2022-12-15T03:41:03.103Z,3.40
2022-12-15T03:43:32.478Z,3.30
2022-12-15T03:45:59.393Z,3.30
2022-12-15T03:48:26.046Z,3.30
2022-12-15T03:50:54.913Z,3.40
2022-12-15T03:53:21.549Z,3.50
2022-12-15T03:55:48.138Z,3.50
2022-12-15T03:58:14.725Z,3.50
2022-12-15T04:00:41.342Z,3.60
2022-12-15T04:03:11.225Z,3.60
2022-12-15T04:05:38.107Z,3.60
2022-12-15T04:08:05.757Z,3.60
2022-12-15T04:10:35.042Z,3.60
2022-12-15T04:13:06.177Z,3.60
2022-12-15T04:15:33.998Z,3.50
2022-12-15T04:18:05.468Z,3.50
2022-12-15T04:20:33.130Z,3.50
2022-12-15T04:23:00.295Z,3.50
2022-12-15T04:25:46.162Z,3.50
2022-12-15T04:28:35.282Z,3.50
2022-12-15T04:31:36.648Z,3.50
2022-12-15T04:34:25.011Z,3.40
2022-12-15T04:37:12.493Z,3.40
2022-12-15T04:40:02.464Z,3.40
2022-12-15T04:42:55.142Z,3.40
2022-12-15T04:45:45.101Z,3.50
2022-12-15T04:48:30.410Z,3.50
2022-12-15T04:51:15.862Z,3.50
2022-12-15T04:54:04.327Z,3.50
2022-12-15T04:56:50.759Z,3.60
2022-12-15T04:59:36.412Z,3.60
2022-12-15T05:02:24.927Z,3.60
2022-12-15T05:05:11.908Z,3.60
2022-12-15T05:08:07.539Z,3.60
2022-12-15T05:10:52.876Z,3.60
2022-12-15T05:13:38.272Z,3.60
2022-12-15T05:16:24.115Z,3.50
2022-12-15T05:19:09.378Z,3.60
2022-12-15T05:21:54.450Z,3.50
2022-12-15T05:24:39.982Z,3.60
2022-12-15T05:27:25.368Z,3.50
2022-12-15T05:30:10.819Z,3.50
2022-12-15T05:32:37.968Z,3.60
2022-12-15T05:35:04.891Z,3.70
2022-12-15T05:37:31.676Z,3.70
2022-12-15T05:39:58.250Z,3.70
2022-12-15T05:42:24.864Z,3.80
2022-12-15T05:44:51.507Z,3.80
2022-12-15T05:47:20.075Z,3.80
2022-12-15T05:49:52.451Z,3.80
2022-12-15T05:52:19.105Z,3.80
2022-12-15T05:54:45.692Z,3.90
2022-12-15T05:57:12.269Z,3.80
2022-12-15T05:59:38.917Z,3.80
2022-12-15T06:02:05.576Z,3.80
2022-12-15T06:04:32.332Z,3.80
2022-12-15T06:06:58.989Z,3.80
2022-12-15T06:09:25.624Z,3.80
2022-12-15T06:11:52.201Z,3.80
2022-12-15T06:14:19.780Z,3.80
2022-12-15T06:16:46.464Z,3.80
2022-12-15T06:19:17.951Z,3.70
2022-12-15T06:21:44.559Z,3.80
2022-12-15T06:24:11.183Z,3.70
2022-12-15T06:26:39.465Z,3.70
2022-12-15T06:29:08.535Z,3.70
2022-12-15T06:31:36.555Z,3.70
2022-12-15T06:34:13.009Z,3.70
2022-12-15T06:36:39.629Z,3.70
2022-12-15T06:39:09.122Z,3.70
2022-12-15T06:41:35.801Z,3.70
2022-12-15T06:44:03.318Z,3.60
2022-12-15T06:46:31.541Z,3.60
2022-12-15T06:48:58.887Z,3.60
2022-12-15T06:51:26.194Z,3.60
2022-12-15T06:53:56.210Z,3.60
2022-12-15T06:56:32.635Z,3.50
2022-12-15T06:59:00.652Z,3.50
2022-12-15T07:01:27.838Z,3.50
2022-12-15T07:03:55.619Z,3.60
2022-12-15T07:06:23.034Z,3.50
2022-12-15T07:08:56.430Z,3.40
2022-12-15T07:11:23.417Z,3.50
2022-12-15T07:13:53.993Z,3.50
2022-12-15T07:16:22.584Z,3.50
2022-12-15T07:18:49.725Z,3.60
2022-12-15T07:21:16.373Z,3.50
2022-12-15T07:23:54.616Z,3.60
2022-12-15T07:26:22.753Z,3.60
2022-12-15T07:28:49.550Z,3.50
2022-12-15T07:31:16.284Z,3.50
2022-12-15T07:33:43.416Z,3.50
2022-12-15T07:36:10.893Z,3.50
2022-12-15T07:38:37.903Z,3.50
2022-12-15T07:41:06.719Z,3.50
2022-12-15T07:43:34.248Z,3.60
2022-12-15T07:46:03.591Z,3.60
2022-12-15T07:48:30.357Z,3.60
2022-12-15T07:51:08.369Z,3.70
2022-12-15T07:53:38.151Z,3.70
2022-12-15T07:56:08.639Z,3.70
2022-12-15T07:58:36.896Z,3.70
2022-12-15T08:01:06.060Z,3.70
2022-12-15T08:03:33.868Z,3.70
2022-12-15T08:06:09.895Z,3.70
2022-12-15T08:08:36.832Z,3.70
2022-12-15T08:11:07.814Z,3.70
2022-12-15T08:16:22.115Z,3.80
2022-12-15T08:18:49.036Z,3.80
2022-12-15T08:21:15.789Z,3.80
2022-12-15T08:23:42.403Z,3.80
2022-12-15T08:26:11.889Z,3.80
2022-12-15T08:28:40.369Z,3.80
2022-12-15T08:31:12.399Z,3.80
2022-12-15T08:33:39.579Z,3.80
2022-12-15T08:36:10.247Z,3.80
2022-12-15T08:38:41.354Z,3.90
2022-12-15T08:41:16.099Z,4.00
2022-12-15T08:43:48.147Z,4.00
2022-12-15T08:46:20.864Z,4.00
2022-12-15T08:48:47.832Z,4.00
2022-12-15T08:51:14.775Z,4.00
2022-12-15T08:53:41.651Z,4.00
2022-12-15T08:56:12.371Z,4.00
2022-12-15T08:58:39.753Z,4.00
2022-12-15T09:01:09.294Z,4.00
2022-12-15T09:03:36.806Z,4.00
2022-12-15T09:06:05.710Z,4.00
2022-12-15T09:08:33.057Z,4.10
2022-12-15T09:11:01.911Z,4.10
2022-12-15T09:13:29.708Z,4.20
2022-12-15T09:16:13.475Z,4.30
2022-12-15T09:18:43.210Z,4.30
2022-12-15T09:21:11.180Z,4.40
2022-12-15T09:23:38.318Z,4.40
2022-12-15T09:26:07.840Z,4.40
2022-12-15T09:28:34.890Z,4.40
2022-12-15T09:31:07.095Z,4.40
2022-12-15T09:33:34.525Z,4.40
2022-12-15T09:36:01.838Z,4.40
2022-12-15T09:38:28.452Z,4.40
2022-12-15T09:40:55.113Z,4.40
2022-12-15T09:43:46.756Z,4.40
2022-12-15T09:46:38.056Z,4.40
2022-12-15T09:49:25.072Z,4.40
2022-12-15T09:52:10.365Z,4.40
2022-12-15T09:54:38.521Z,4.40
2022-12-15T09:57:18.314Z,4.50
2022-12-15T09:59:57.851Z,4.50
2022-12-15T10:02:43.318Z,4.50
2022-12-15T10:08:56.704Z,4.40
2022-12-15T10:11:50.646Z,4.50
2022-12-15T10:14:23.370Z,4.40
2022-12-15T10:17:14.253Z,4.40
2022-12-15T10:20:03.917Z,4.30
2022-12-15T10:22:34.280Z,4.40
2022-12-15T10:25:30.149Z,4.50
2022-12-15T10:28:17.474Z,4.50
2022-12-15T10:30:59.368Z,4.50
2022-12-15T10:33:29.043Z,4.40
2022-12-15T10:35:56.196Z,4.40
2022-12-15T10:38:42.294Z,4.40
2022-12-15T10:41:16.455Z,4.40
2022-12-15T10:43:46.797Z,4.50
2022-12-15T10:46:19.264Z,4.60
2022-12-15T10:48:51.427Z,4.60
2022-12-15T10:51:31.493Z,4.70
2022-12-15T10:54:09.567Z,4.60
2022-12-15T10:56:58.028Z,4.50
2022-12-15T10:59:25.792Z,4.60
2022-12-15T11:01:52.958Z,4.60
2022-12-15T11:04:27.896Z,4.60
2022-12-15T11:07:03.384Z,4.70
2022-12-15T11:09:39.787Z,4.80
2022-12-15T11:12:42.984Z,4.80
2022-12-15T11:15:39.162Z,4.80
2022-12-15T11:18:14.172Z,4.80
2022-12-15T11:20:48.560Z,4.90
2022-12-15T11:23:27.602Z,4.90
2022-12-15T11:26:07.233Z,5.00
2022-12-15T11:28:45.809Z,5.00
2022-12-15T11:31:24.988Z,5.10
2022-12-15T11:33:54.232Z,5.10
2022-12-15T11:36:53.765Z,5.10
2022-12-15T11:39:55.751Z,5.10
2022-12-15T11:42:34.214Z,5.20
2022-12-15T11:45:32.919Z,5.30
2022-12-15T11:48:18.527Z,5.30
2022-12-15T11:50:59.281Z,5.40
2022-12-15T11:53:44.620Z,5.60
2022-12-15T11:56:33.501Z,5.60
2022-12-15T11:59:33.901Z,5.60
2022-12-15T12:02:33.827Z,5.60
2022-12-15T12:05:26.736Z,5.60
2022-12-15T12:08:00.874Z,5.60
2022-12-15T12:10:36.496Z,5.50
2022-12-15T12:13:21.344Z,5.40
2022-12-15T12:16:09.708Z,5.40
2022-12-15T12:18:42.943Z,5.40
2022-12-15T12:21:15.289Z,5.50
2022-12-15T12:24:01.827Z,5.40
2022-12-15T12:26:38.677Z,5.50
2022-12-15T12:29:23.119Z,5.50
2022-12-15T12:32:15.890Z,5.50
2022-12-15T12:35:31.249Z,5.60
2022-12-15T12:38:04.726Z,5.60
2022-12-15T12:40:40.179Z,5.60
2022-12-15T12:43:13.536Z,5.50
2022-12-15T12:45:50.282Z,5.60
2022-12-15T12:48:43.735Z,5.60
2022-12-15T12:51:33.838Z,5.70
2022-12-15T12:54:01.340Z,5.70
2022-12-15T12:56:44.369Z,5.80
2022-12-15T12:59:30.484Z,5.80
2022-12-15T13:02:11.149Z,5.80
2022-12-15T13:04:40.533Z,5.60
2022-12-15T13:07:37.679Z,5.60
2022-12-15T13:10:19.907Z,5.60
2022-12-15T13:12:54.443Z,5.50
2022-12-15T13:15:27.685Z,5.40
2022-12-15T13:18:06.358Z,5.50
2022-12-15T13:20:35.735Z,5.50
2022-12-15T13:23:21.129Z,5.40
2022-12-15T13:25:56.963Z,5.50
2022-12-15T13:28:23.666Z,5.60
2022-12-15T13:31:16.562Z,5.60
2022-12-15T13:33:49.198Z,5.60
2022-12-15T13:36:37.907Z,5.70
2022-12-15T13:39:16.628Z,5.80
2022-12-15T13:42:07.898Z,5.80
2022-12-15T13:44:51.445Z,5.80
2022-12-15T13:47:25.543Z,5.60
2022-12-15T13:50:11.595Z,5.70
2022-12-15T13:53:18.990Z,5.80
2022-12-15T13:56:11.482Z,5.80
2022-12-15T13:58:44.366Z,5.80
2022-12-15T14:01:30.110Z,5.90
2022-12-15T14:04:05.113Z,5.90
2022-12-15T14:06:43.941Z,5.90
2022-12-15T14:09:14.317Z,5.90
2022-12-15T14:11:58.614Z,5.90
2022-12-15T14:14:33.283Z,5.90
2022-12-15T14:17:02.907Z,5.90
2022-12-15T14:19:51.182Z,6.00
2022-12-15T14:22:34.706Z,6.00
2022-12-15T14:25:16.176Z,6.00
2022-12-15T14:27:42.769Z,6.00
2022-12-15T14:30:29.561Z,6.00
2022-12-15T14:33:02.095Z,5.90
2022-12-15T14:35:40.064Z,5.80
2022-12-15T14:38:11.901Z,5.90
2022-12-15T14:40:40.048Z,5.90
2022-12-15T14:43:36.497Z,5.90
2022-12-15T14:46:12.699Z,5.90
2022-12-15T14:48:45.119Z,5.90
2022-12-15T14:51:13.852Z,5.90
2022-12-15T14:53:42.756Z,5.90
2022-12-15T14:56:31.165Z,5.90
2022-12-15T14:59:18.449Z,5.90
2022-12-15T15:02:01.953Z,5.90
2022-12-15T15:04:34.043Z,5.90
2022-12-15T15:07:03.323Z,5.80
2022-12-15T15:09:32.885Z,5.90
2022-12-15T15:12:04.776Z,5.90
2022-12-15T15:14:44.642Z,5.80
2022-12-15T15:17:14.623Z,5.80
2022-12-15T15:19:49.356Z,5.90
2022-12-15T15:22:39.837Z,5.80
2022-12-15T15:25:28.212Z,5.90
2022-12-15T15:28:15.433Z,5.80
2022-12-15T15:30:46.035Z,5.80
2022-12-15T15:33:15.174Z,5.80
2022-12-15T15:35:43.293Z,5.80
2022-12-15T15:38:35.038Z,5.90
2022-12-15T15:41:32.399Z,5.80
2022-12-15T15:44:01.473Z,6.00
2022-12-15T15:46:33.858Z,5.90
2022-12-15T15:49:07.963Z,5.90
2022-12-15T15:51:36.029Z,5.90
2022-12-15T15:54:10.880Z,5.80
2022-12-15T15:56:37.722Z,5.80
2022-12-15T15:59:16.219Z,5.80
2022-12-15T16:01:44.332Z,5.80
2022-12-15T16:04:11.503Z,5.70
2022-12-15T16:06:43.514Z,5.80
2022-12-15T16:09:14.965Z,5.90
2022-12-15T16:11:41.676Z,5.90
2022-12-15T16:14:14.243Z,5.80
2022-12-15T16:16:43.263Z,5.80
2022-12-15T16:19:12.105Z,5.80
2022-12-15T16:21:40.831Z,5.90
2022-12-15T16:24:16.428Z,5.90
2022-12-15T16:26:50.562Z,5.90
2022-12-15T16:29:19.741Z,5.90
2022-12-15T16:31:46.574Z,5.90
2022-12-15T16:34:13.790Z,5.90
2022-12-15T16:36:41.076Z,5.90
2022-12-15T16:39:33.627Z,6.00
2022-12-15T16:42:00.965Z,5.90
2022-12-15T16:44:29.281Z,5.90
2022-12-15T16:46:56.805Z,5.90
2022-12-15T16:53:48.794Z,6.00
2022-12-15T16:56:15.732Z,6.10
2022-12-15T16:58:42.559Z,6.00
2022-12-15T17:01:11.416Z,6.00
2022-12-15T17:03:38.290Z,6.00
2022-12-15T17:06:07.340Z,6.10
2022-12-15T17:08:54.085Z,6.20
2022-12-15T17:11:26.689Z,6.10
2022-12-15T17:13:57.210Z,6.10
2022-12-15T17:16:25.838Z,6.10
2022-12-15T17:18:52.731Z,6.10
2022-12-15T17:21:33.040Z,6.10
2022-12-15T17:24:05.292Z,6.00
2022-12-15T17:26:36.419Z,6.00
2022-12-15T17:29:25.144Z,6.00
2022-12-15T17:31:52.055Z,6.00
2022-12-15T17:34:33.051Z,6.00
2022-12-15T17:37:04.311Z,5.90
2022-12-15T17:39:32.521Z,5.90
2022-12-15T17:42:01.144Z,5.90
2022-12-15T17:44:34.755Z,5.90
2022-12-15T17:47:04.555Z,5.90
2022-12-15T17:49:35.646Z,5.90
2022-12-15T17:52:07.800Z,5.80
2022-12-15T17:54:35.484Z,5.80
2022-12-15T17:57:02.152Z,5.80
2022-12-15T17:59:28.753Z,5.80
2022-12-15T18:01:57.069Z,5.70
2022-12-15T18:04:24.037Z,5.70
2022-12-15T18:06:59.562Z,5.70
2022-12-15T18:09:28.596Z,5.70
2022-12-15T18:11:55.348Z,5.70
2022-12-15T18:14:22.863Z,5.70
2022-12-15T18:16:49.801Z,5.70
2022-12-15T18:19:16.431Z,5.60
2022-12-15T18:21:43.111Z,5.60
2022-12-15T18:24:13.144Z,5.60
2022-12-15T18:26:39.751Z,5.50
2022-12-15T18:29:17.542Z,5.50
2022-12-15T18:31:46.597Z,5.50
2022-12-15T18:34:28.612Z,5.40
2022-12-15T18:37:02.074Z,5.50
2022-12-15T18:39:28.692Z,5.50
2022-12-15T18:41:55.394Z,5.50
2022-12-15T18:44:27.536Z,5.60
2022-12-15T18:46:55.325Z,5.60
2022-12-15T18:49:22.957Z,5.50
2022-12-15T18:51:50.249Z,5.50
2022-12-15T18:54:22.303Z,5.60
2022-12-15T18:56:49.528Z,5.60
2022-12-15T18:59:17.736Z,5.60
2022-12-15T19:01:46.376Z,5.60
2022-12-15T19:04:13.979Z,5.60
2022-12-15T19:06:41.817Z,5.50
2022-12-15T19:09:15.790Z,5.50
2022-12-15T19:12:04.659Z,5.50
2022-12-15T19:14:40.081Z,5.50
2022-12-15T19:17:42.062Z,5.50
2022-12-15T19:20:38.621Z,5.50
2022-12-15T19:23:06.580Z,5.50
2022-12-15T19:25:36.802Z,5.50
2022-12-15T19:28:03.926Z,5.50
2022-12-15T19:30:37.042Z,5.50
2022-12-15T19:33:08.210Z,5.50
2022-12-15T19:35:35.648Z,5.50
2022-12-15T19:38:03.609Z,5.50
2022-12-15T19:40:32.613Z,5.50
2022-12-15T19:43:00.313Z,5.50
2022-12-15T19:45:29.539Z,5.50
2022-12-15T19:47:57.031Z,5.50
2022-12-15T19:50:26.176Z,5.50
2022-12-15T19:52:56.492Z,5.50
2022-12-15T19:55:29.943Z,5.50
2022-12-15T19:57:56.664Z,5.50
2022-12-15T20:00:24.701Z,5.50
2022-12-15T20:02:54.513Z,5.60
2022-12-15T20:05:23.407Z,5.60
2022-12-15T20:07:52.167Z,5.50
2022-12-15T20:10:27.522Z,5.60
2022-12-15T20:12:58.954Z,5.60
2022-12-15T20:15:28.452Z,5.50
2022-12-15T20:17:56.386Z,5.50
2022-12-15T20:20:25.034Z,5.50
2022-12-15T20:22:54.596Z,5.50
2022-12-15T20:25:26.371Z,5.50
2022-12-15T20:27:53.031Z,5.50
2022-12-15T20:30:26.754Z,5.40
2022-12-15T20:32:53.622Z,5.40
2022-12-15T20:35:21.856Z,5.40
2022-12-15T20:37:49.644Z,5.40
2022-12-15T20:40:19.470Z,5.40
2022-12-15T20:42:46.449Z,5.50
2022-12-15T20:45:15.019Z,5.50
2022-12-15T20:47:43.731Z,5.50
2022-12-15T20:50:38.104Z,5.50
2022-12-15T20:53:13.702Z,5.50
2022-12-15T20:55:40.322Z,5.50
2022-12-15T20:58:06.962Z,5.50
2022-12-15T21:00:33.795Z,5.40
2022-12-15T21:03:00.738Z,5.40
2022-12-15T21:05:27.611Z,5.40
2022-12-15T21:07:54.299Z,5.40
2022-12-15T21:10:20.963Z,5.50
2022-12-15T21:12:49.289Z,5.50
2022-12-15T21:15:23.405Z,5.50
2022-12-15T21:18:08.871Z,5.40
2022-12-15T21:20:41.356Z,5.40
2022-12-15T21:23:24.306Z,5.40
2022-12-15T21:25:51.732Z,5.50
2022-12-15T21:28:18.607Z,5.50
2022-12-15T21:30:45.623Z,5.50
2022-12-15T21:33:12.530Z,5.50
2022-12-15T21:35:41.245Z,5.60
2022-12-15T21:38:23.571Z,5.50
2022-12-15T21:40:55.973Z,5.50
2022-12-15T21:43:28.670Z,5.50
2022-12-15T21:45:55.526Z,5.60
2022-12-15T21:48:40.732Z,5.50
2022-12-15T21:51:15.303Z,5.50
2022-12-15T21:53:43.146Z,5.50
2022-12-15T21:56:18.689Z,5.50
2022-12-15T21:58:48.837Z,5.50
2022-12-15T22:01:19.544Z,5.50
2022-12-15T22:03:53.167Z,5.50
2022-12-15T22:06:24.438Z,5.50
2022-12-15T22:08:53.383Z,5.50
2022-12-15T22:11:26.354Z,5.50
2022-12-15T22:13:55.189Z,5.50
2022-12-15T22:16:22.828Z,5.50
2022-12-15T22:18:53.096Z,5.50
2022-12-15T22:21:22.575Z,5.50
2022-12-15T22:23:50.677Z,5.50
2022-12-15T22:26:30.894Z,5.50
2022-12-15T22:29:01.225Z,5.50
2022-12-15T22:31:28.947Z,5.50
2022-12-15T22:33:55.618Z,5.50
2022-12-15T22:36:22.235Z,5.50
2022-12-15T22:38:48.856Z,5.50
2022-12-15T22:41:23.332Z,5.50
2022-12-15T22:43:56.228Z,5.50
2022-12-15T22:46:24.671Z,5.50
2022-12-15T22:48:52.735Z,5.50
2022-12-15T22:51:21.776Z,5.50
2022-12-15T22:53:48.440Z,5.50
2022-12-15T22:56:28.228Z,5.50
2022-12-15T22:59:00.668Z,5.50
2022-12-15T23:01:27.974Z,5.50
2022-12-15T23:03:55.473Z,5.50
2022-12-15T23:06:23.456Z,5.50
2022-12-15T23:08:55.654Z,5.50
2022-12-15T23:11:39.250Z,5.50
2022-12-15T23:14:17.125Z,5.40
2022-12-15T23:16:45.273Z,5.50
2022-12-15T23:19:23.839Z,5.50
2022-12-15T23:21:51.048Z,5.40
2022-12-15T23:24:18.557Z,5.50
2022-12-15T23:26:45.207Z,5.50
2022-12-15T23:29:11.818Z,5.50
2022-12-15T23:31:38.516Z,5.50
2022-12-15T23:34:05.322Z,5.50
2022-12-15T23:36:31.958Z,5.50
2022-12-15T23:38:58.658Z,5.50
2022-12-15T23:41:25.262Z,5.50
2022-12-15T23:43:52.004Z,5.50
2022-12-15T23:46:18.818Z,5.50
2022-12-15T23:48:45.645Z,5.40
2022-12-15T23:51:20.105Z,5.40
2022-12-15T23:53:47.905Z,5.40
2022-12-15T23:56:20.223Z,5.40
2022-12-15T23:58:49.096Z,5.40
